This is the latest recevied weather packets stored in our database for station/object HA3KE-10. If no packets are shown the sender has not sent any weather packets the latest 10 day(s).
| Time | Temp. | Humidity | Pressure | Rain* | Wind** | Luminosity | Snow |
|---|---|---|---|---|---|---|---|
| 1777513774 | 7.78° C | 38% | 1025.5 hPa | - | - | - | - |
| 1777512874 | 7.78° C | 38% | 1025.3 hPa | - | - | - | - |
| 1777511974 | 7.78° C | 39% | 1025.2 hPa | - | - | - | - |
| 1777511074 | 8.33° C | 39% | 1025 hPa | - | - | - | - |
| 1777509273 | 8.89° C | 38% | 1024.7 hPa | - | - | - | - |
| 1777507473 | 9.44° C | 37% | 1024.5 hPa | - | - | - | - |
| 1777505673 | 9.44° C | 36% | 1024.3 hPa | - | - | - | - |
| 1777501175 | 10° C | 55% | 1023.7 hPa | - | - | - | - |
| 1777497574 | 11.11° C | 57% | 1023.1 hPa | - | - | - | - |
| 1777493074 | 11.67° C | 55% | 1022.6 hPa | - | - | - | - |
| 1777491273 | 12.22° C | 51% | 1022.4 hPa | - | - | - | - |
| 1777490373 | 12.78° C | 50% | 1022.3 hPa | - | - | - | - |
| 1777487673 | 13.33° C | 45% | 1022 hPa | - | - | - | - |
| 1777484072 | 13.89° C | 43% | 1021.3 hPa | - | - | - | - |
| 1777481372 | 14.44° C | 42% | 1021 hPa | - | - | - | - |
| 1777480474 | 15° C | 40% | 1021 hPa | - | - | - | - |
| 1777477774 | 15.56° C | 38% | 1021.2 hPa | - | - | - | - |
| 1777476874 | 15.56° C | 37% | 1021.2 hPa | - | - | - | - |
| 1777470573 | 16.11° C | 32% | 1021.5 hPa | - | - | - | - |
| 1777468772 | 16.11° C | 31% | 1021.6 hPa | - | - | - | - |
| 1777467872 | 16.11° C | 30% | 1021.6 hPa | - | - | - | - |
| 1777466072 | 16.11° C | 30% | 1021.8 hPa | - | - | - | - |
| 1777465172 | 15.56° C | 32% | 1021.8 hPa | - | - | - | - |
| 1777464272 | 15° C | 31% | 1021.9 hPa | - | - | - | - |
| 1777462471 | 15° C | 31% | 1022 hPa | - | - | - | - |
* Rain since midnight (hover to see other rain measurements)
** Current wind speed in m/s (hover to see current wind gust speed)